Time;durP1;ratioP1;P1;durP2;ratioP2;P2;SDS_P1;SDS_P2;PMS_P1;PMS_P2;Temp;Humidity;BMP_temperature;BMP_pressure;BME280_temperature;BME280_humidity;BME280_pressure;Samples;Min_cycle;Max_cycle;Signal;HPM_P1;HPM_P2
2022/11/12 00:01:21;;;;;;;11.15;8.80;;;;;;;;;;5054961;28;20407;-66
2022/11/12 00:03:46;;;;;;;11.88;8.93;;;;;;;;;;5037142;28;20017;-68
2022/11/12 00:06:12;;;;;;;11.80;8.95;;;;;;;;;;5055153;28;20487;-69
2022/11/12 00:08:37;;;;;;;12.15;9.05;;;;;;;;;;5054883;28;20120;-68
2022/11/12 00:11:03;;;;;;;11.32;8.75;;;;;;;;;;5054858;28;20024;-64
2022/11/12 00:13:29;;;;;;;12.50;9.00;;;;;;;;;;5055078;28;20029;-69
2022/11/12 00:15:55;;;;;;;12.18;8.88;;;;;;;;;;5054927;28;20028;-68
2022/11/12 00:18:20;;;;;;;12.68;9.10;;;;;;;;;;5055262;28;20488;-66
2022/11/12 00:20:46;;;;;;;10.85;8.80;;;;;;;;;;5054652;28;20033;-69
2022/11/12 00:23:12;;;;;;;13.13;8.88;;;;;;;;;;5054387;28;20460;-68
2022/11/12 00:25:37;;;;;;;10.40;8.60;;;;;;;;;;5054704;28;20029;-68
2022/11/12 00:28:04;;;;;;;11.80;9.15;;;;;;;;;;5054488;28;20021;-68
2022/11/12 00:30:30;;;;;;;10.38;8.57;;;;;;;;;;5054485;28;20372;-68
2022/11/12 00:32:56;;;;;;;13.10;9.55;;;;;;;;;;5054468;28;20029;-68
2022/11/12 00:35:21;;;;;;;11.63;8.93;;;;;;;;;;5054633;28;20025;-68
2022/11/12 00:37:51;;;;;;;12.15;8.52;;;;;;;;;;5054527;28;20369;-68
2022/11/12 00:40:17;;;;;;;;;;;;;;;;;;5054707;28;20025;-68
2022/11/12 00:42:42;;;;;;;12.48;8.48;;;;;;;;;;5053652;28;19912;-68
2022/11/12 00:45:08;;;;;;;11.13;8.65;;;;;;;;;;5054229;28;20025;-65
2022/11/12 00:47:34;;;;;;;12.00;8.30;;;;;;;;;;5054149;28;20029;-66
2022/11/12 00:49:59;;;;;;;9.80;8.32;;;;;;;;;;5054380;28;20068;-69
2022/11/12 00:52:25;;;;;;;10.73;8.48;;;;;;;;;;5054299;28;20032;-67
2022/11/12 00:54:50;;;;;;;12.63;8.30;;;;;;;;;;5053982;28;20093;-66
2022/11/12 00:57:16;;;;;;;10.60;8.63;;;;;;;;;;5054139;28;20028;-67
2022/11/12 00:59:41;;;;;;;12.30;8.73;;;;;;;;;;5053963;28;20025;-68
2022/11/12 01:02:07;;;;;;;11.63;8.55;;;;;;;;;;5053824;28;20031;-68
2022/11/12 01:04:32;;;;;;;9.77;8.02;;;;;;;;;;5054130;28;20110;-65
2022/11/12 01:06:58;;;;;;;12.30;8.77;;;;;;;;;;5053810;28;20033;-65
2022/11/12 01:09:23;;;;;;;10.52;8.50;;;;;;;;;;5053788;28;20029;-67
2022/11/12 01:11:49;;;;;;;11.90;9.43;;;;;;;;;;5053721;28;20032;-67
2022/11/12 01:14:14;;;;;;;9.73;8.43;;;;;;;;;;5053859;28;20029;-65
2022/11/12 01:16:41;;;;;;;11.27;8.25;;;;;;;;;;5053497;28;20031;-68
2022/11/12 01:19:09;;;;;;;11.80;8.27;;;;;;;;;;5053491;28;20050;-66
2022/11/12 01:21:39;;;;;;;10.65;8.52;;;;;;;;;;5053729;28;20079;-65
2022/11/12 01:24:05;;;;;;;10.38;8.50;;;;;;;;;;5053282;28;20123;-68
2022/11/12 01:26:31;;;;;;;11.95;8.75;;;;;;;;;;5053416;28;20064;-68
2022/11/12 01:28:57;;;;;;;10.70;8.68;;;;;;;;;;5053365;28;20041;-68
2022/11/12 01:31:24;;;;;;;10.15;8.32;;;;;;;;;;5053284;28;20028;-69
2022/11/12 01:33:55;;;;;;;11.02;8.70;;;;;;;;;;5053517;28;20033;-65
2022/11/12 01:36:22;;;;;;;10.15;8.82;;;;;;;;;;5053216;28;20112;-64
2022/11/12 01:38:48;;;;;;;9.73;8.45;;;;;;;;;;5053170;28;20031;-69
2022/11/12 01:41:23;;;;;;;11.00;8.63;;;;;;;;;;5053404;28;20456;-68
2022/11/12 01:44:10;;;;;;;9.82;8.55;;;;;;;;;;5053066;28;20025;-68
2022/11/12 01:47:00;;;;;;;11.82;8.45;;;;;;;;;;5053077;28;20033;-68
2022/11/12 01:49:46;;;;;;;9.07;7.93;;;;;;;;;;5053318;28;20035;-66
2022/11/12 01:52:18;;;;;;;10.18;8.02;;;;;;;;;;5052919;28;20044;-66
2022/11/12 01:54:48;;;;;;;9.93;8.13;;;;;;;;;;5052358;28;20017;-67
2022/11/12 01:57:16;;;;;;;11.90;8.43;;;;;;;;;;5052990;28;20043;-69
2022/11/12 01:59:45;;;;;;;10.57;8.20;;;;;;;;;;5052839;28;20123;-66
2022/11/12 02:02:11;;;;;;;9.37;8.03;;;;;;;;;;5053110;28;20025;-66
2022/11/12 02:04:39;;;;;;;11.02;8.35;;;;;;;;;;5052906;28;20358;-67
2022/11/12 02:07:06;;;;;;;10.90;8.23;;;;;;;;;;5052741;28;20559;-65
2022/11/12 02:09:32;;;;;;;12.05;8.60;;;;;;;;;;5052643;28;20032;-69
2022/11/12 02:11:59;;;;;;;9.35;8.10;;;;;;;;;;5052586;28;20528;-67
2022/11/12 02:14:25;;;;;;;10.30;8.10;;;;;;;;;;5052884;28;20029;-69
2022/11/12 02:16:52;;;;;;;9.98;7.70;;;;;;;;;;5052494;28;20112;-66
2022/11/12 02:19:17;;;;;;;11.35;8.15;;;;;;;;;;5052864;28;20151;-67
2022/11/12 02:21:44;;;;;;;9.40;7.78;;;;;;;;;;5052801;28;20025;-65
2022/11/12 02:24:12;;;;;;;11.93;8.30;;;;;;;;;;5052273;28;20045;-68
2022/11/12 02:26:42;;;;;;;10.95;8.23;;;;;;;;;;5052448;28;20424;-65
2022/11/12 02:29:08;;;;;;;11.30;8.40;;;;;;;;;;5052610;28;20024;-67
2022/11/12 02:31:33;;;;;;;8.85;7.63;;;;;;;;;;5052435;28;20025;-67
2022/11/12 02:33:59;;;;;;;9.40;7.90;;;;;;;;;;5052374;28;20082;-68
2022/11/12 02:36:25;;;;;;;10.02;8.02;;;;;;;;;;5052256;28;20033;-69
2022/11/12 02:38:51;;;;;;;10.48;8.13;;;;;;;;;;5052278;28;20036;-67
2022/11/12 02:41:17;;;;;;;9.45;8.13;;;;;;;;;;5052260;28;20032;-69
2022/11/12 02:43:43;;;;;;;10.95;7.55;;;;;;;;;;5052182;28;20029;-68
2022/11/12 02:46:08;;;;;;;9.85;7.15;;;;;;;;;;5052188;28;20102;-69
2022/11/12 02:48:34;;;;;;;10.45;8.23;;;;;;;;;;5052120;28;20033;-68
2022/11/12 02:50:59;;;;;;;9.02;8.13;;;;;;;;;;5052457;28;20029;-68
2022/11/12 02:53:25;;;;;;;10.35;7.80;;;;;;;;;;5052197;28;20112;-68
2022/11/12 02:55:50;;;;;;;9.98;8.00;;;;;;;;;;5052289;28;20483;-67
2022/11/12 02:58:16;;;;;;;8.30;7.40;;;;;;;;;;5052150;28;20028;-68
2022/11/12 03:00:42;;;;;;;9.02;7.45;;;;;;;;;;5052152;28;20546;-68
2022/11/12 03:03:07;;;;;;;10.13;8.23;;;;;;;;;;5052133;28;20079;-68
2022/11/12 03:05:34;;;;;;;11.32;7.90;;;;;;;;;;5054280;28;20103;-69
2022/11/12 03:08:03;;;;;;;9.07;7.60;;;;;;;;;;5056273;28;20037;-68
2022/11/12 03:10:29;;;;;;;9.48;7.57;;;;;;;;;;5056026;28;20060;-67
2022/11/12 03:12:57;;;;;;;9.50;7.85;;;;;;;;;;5056274;28;20024;-67
2022/11/12 03:15:23;;;;;;;10.98;7.90;;;;;;;;;;5056161;28;20027;-65
2022/11/12 03:17:48;;;;;;;9.70;7.63;;;;;;;;;;5056040;28;20399;-65
2022/11/12 03:20:14;;;;;;;8.63;7.30;;;;;;;;;;5055827;28;20539;-67
2022/11/12 03:22:40;;;;;;;8.43;7.50;;;;;;;;;;5055695;28;20039;-68
2022/11/12 03:25:07;;;;;;;10.80;8.10;;;;;;;;;;5055516;28;20130;-67
2022/11/12 03:27:33;;;;;;;10.27;7.80;;;;;;;;;;5055603;28;20025;-67
2022/11/12 03:29:59;;;;;;;10.23;8.02;;;;;;;;;;5055660;28;20028;-67
2022/11/12 03:32:24;;;;;;;8.85;7.22;;;;;;;;;;5055881;28;20028;-65
2022/11/12 03:34:50;;;;;;;7.95;7.03;;;;;;;;;;5055829;28;20025;-66
2022/11/12 03:37:15;;;;;;;9.18;8.00;;;;;;;;;;5055406;28;20116;-67
2022/11/12 03:39:41;;;;;;;10.57;7.38;;;;;;;;;;5055487;28;20029;-66
2022/11/12 03:42:07;;;;;;;9.85;7.45;;;;;;;;;;5055448;28;20017;-67
2022/11/12 03:44:32;;;;;;;9.15;7.65;;;;;;;;;;5055705;28;20121;-68
2022/11/12 03:46:58;;;;;;;10.40;7.93;;;;;;;;;;5055319;28;20028;-66
2022/11/12 03:49:24;;;;;;;10.38;7.75;;;;;;;;;;5055353;28;20036;-68
2022/11/12 03:51:49;;;;;;;8.52;7.53;;;;;;;;;;5055532;28;20029;-67
2022/11/12 03:54:15;;;;;;;9.35;7.68;;;;;;;;;;5055250;28;20059;-65
2022/11/12 03:56:40;;;;;;;11.90;7.80;;;;;;;;;;5055108;28;20085;-65
2022/11/12 03:59:06;;;;;;;10.05;7.40;;;;;;;;;;5055399;28;20376;-68
2022/11/12 04:01:31;;;;;;;10.10;8.10;;;;;;;;;;5055299;28;20503;-64
2022/11/12 04:03:57;;;;;;;9.70;7.15;;;;;;;;;;5055140;28;20021;-65
2022/11/12 04:09:07;;;;;;;10.25;7.50;;;;;;;;;;5055029;28;20040;-65
2022/11/12 04:11:32;;;;;;;10.68;7.88;;;;;;;;;;5055143;28;20029;-67
2022/11/12 04:13:59;;;;;;;8.57;7.03;;;;;;;;;;5054814;28;20102;-69
2022/11/12 04:22:08;;;;;;;9.10;7.53;;;;;;;;;;5054973;28;20032;-68
2022/11/12 04:27:20;;;;;;;8.63;7.30;;;;;;;;;;5054816;28;20028;-67
2022/11/12 04:32:33;;;;;;;8.57;6.88;;;;;;;;;;5054734;28;20083;-66
2022/11/12 04:34:59;;;;;;;9.45;7.45;;;;;;;;;;5054359;28;20025;-66
2022/11/12 04:37:28;;;;;;;8.70;7.78;;;;;;;;;;5054323;28;20029;-67
2022/11/12 04:39:53;;;;;;;7.95;6.97;;;;;;;;;;5054319;28;20025;-66
2022/11/12 04:45:09;;;;;;;10.00;7.40;;;;;;;;;;5054127;28;20036;-65
2022/11/12 04:47:37;;;;;;;8.80;7.07;;;;;;;;;;5053219;28;20389;-63
2022/11/12 04:50:12;;;;;;;8.18;7.30;;;;;;;;;;5053178;28;20142;-63
2022/11/12 04:52:38;;;;;;;8.50;6.88;;;;;;;;;;5053272;28;20123;-63
2022/11/12 04:55:04;;;;;;;8.45;7.18;;;;;;;;;;5052539;28;20076;-63
2022/11/12 04:57:29;;;;;;;8.00;7.20;;;;;;;;;;5052920;28;20036;-63
2022/11/12 04:59:55;;;;;;;7.63;6.82;;;;;;;;;;5053408;28;20118;-63
2022/11/12 05:02:20;;;;;;;9.10;7.40;;;;;;;;;;5054246;28;20100;-64
2022/11/12 05:04:46;;;;;;;8.75;6.65;;;;;;;;;;5053869;28;20047;-64
2022/11/12 05:07:12;;;;;;;8.55;6.93;;;;;;;;;;5054041;28;20032;-66
2022/11/12 05:09:38;;;;;;;8.43;7.20;;;;;;;;;;5053799;28;20043;-63
2022/11/12 05:12:04;;;;;;;10.00;7.45;;;;;;;;;;5053799;28;20099;-64
2022/11/12 05:14:30;;;;;;;9.98;6.85;;;;;;;;;;5053533;28;20033;-67
2022/11/12 05:16:56;;;;;;;8.77;7.13;;;;;;;;;;5053840;28;20029;-63
2022/11/12 05:19:21;;;;;;;7.60;6.80;;;;;;;;;;5053845;28;20484;-64
2022/11/12 05:22:05;;;;;;;7.80;6.97;;;;;;;;;;5053526;28;20103;-65
2022/11/12 05:24:41;;;;;;;9.13;7.40;;;;;;;;;;5053408;28;20045;-67
2022/11/12 05:27:15;;;;;;;9.23;7.00;;;;;;;;;;5053527;28;20107;-65
2022/11/12 05:29:41;;;;;;;7.63;6.72;;;;;;;;;;5053273;28;20104;-63
2022/11/12 05:32:09;;;;;;;9.02;6.82;;;;;;;;;;5053621;28;20116;-63
2022/11/12 05:34:35;;;;;;;8.45;7.10;;;;;;;;;;5053578;28;20017;-63
2022/11/12 05:37:02;;;;;;;9.20;6.88;;;;;;;;;;5053070;28;20534;-63
2022/11/12 05:39:27;;;;;;;7.80;6.68;;;;;;;;;;5053261;28;20021;-63
2022/11/12 05:41:53;;;;;;;7.85;6.90;;;;;;;;;;5053431;28;20044;-67
2022/11/12 05:44:19;;;;;;;8.25;7.10;;;;;;;;;;5053048;28;20488;-66
2022/11/12 05:46:45;;;;;;;9.00;7.28;;;;;;;;;;5053551;28;20128;-63
2022/11/12 05:49:11;;;;;;;7.45;6.68;;;;;;;;;;5053269;28;20353;-63
2022/11/12 05:51:36;;;;;;;8.38;6.47;;;;;;;;;;5053020;28;20379;-63
2022/11/12 05:54:02;;;;;;;7.60;6.68;;;;;;;;;;5052881;28;20032;-64
2022/11/12 05:56:28;;;;;;;8.35;6.78;;;;;;;;;;5052725;28;20039;-63
2022/11/12 05:58:54;;;;;;;7.93;7.13;;;;;;;;;;5052817;28;20025;-63
2022/11/12 06:01:20;;;;;;;8.02;6.88;;;;;;;;;;5053163;28;20096;-64
2022/11/12 06:03:45;;;;;;;9.90;7.47;;;;;;;;;;5052648;28;20526;-66
2022/11/12 06:06:11;;;;;;;7.85;7.03;;;;;;;;;;5052721;28;20024;-63
2022/11/12 06:08:36;;;;;;;8.05;6.90;;;;;;;;;;5052715;28;20025;-64
2022/11/12 06:11:02;;;;;;;7.60;6.53;;;;;;;;;;5052531;28;20029;-64
2022/11/12 06:13:27;;;;;;;8.38;6.82;;;;;;;;;;5052615;28;20131;-63
2022/11/12 06:15:55;;;;;;;10.07;6.85;;;;;;;;;;5052416;28;20431;-63
2022/11/12 06:18:22;;;;;;;8.45;6.57;;;;;;;;;;5052716;28;20025;-63
2022/11/12 06:21:18;;;;;;;7.63;6.80;;;;;;;;;;5052672;28;20025;-63
2022/11/12 06:23:34;;;;;;;7.65;6.60;;;;;;;;;;5052236;28;20496;-64
2022/11/12 06:26:00;;;;;;;7.63;6.63;;;;;;;;;;5052430;28;20035;-64
2022/11/12 06:28:25;;;;;;;7.90;6.72;;;;;;;;;;5052644;28;20036;-64
2022/11/12 06:30:51;;;;;;;8.75;6.63;;;;;;;;;;5052404;28;20511;-63
2022/11/12 06:33:16;;;;;;;8.00;6.30;;;;;;;;;;5052622;28;20120;-63
2022/11/12 06:35:42;;;;;;;8.32;6.63;;;;;;;;;;5052241;28;20048;-63
2022/11/12 06:38:07;;;;;;;8.48;6.88;;;;;;;;;;5052289;28;20028;-63
2022/11/12 06:40:33;;;;;;;7.43;6.43;;;;;;;;;;5051752;28;20028;-64
2022/11/12 06:42:58;;;;;;;7.55;6.50;;;;;;;;;;5052185;28;20071;-63
2022/11/12 06:45:24;;;;;;;8.18;6.60;;;;;;;;;;5052557;28;20028;-63
2022/11/12 06:47:50;;;;;;;7.93;7.13;;;;;;;;;;5052197;28;20028;-63
2022/11/12 06:50:15;;;;;;;7.20;6.50;;;;;;;;;;5052218;28;20021;-63
2022/11/12 06:52:41;;;;;;;7.05;6.35;;;;;;;;;;5052156;28;20025;-64
2022/11/12 06:55:09;;;;;;;7.68;6.75;;;;;;;;;;5052145;28;20029;-66
2022/11/12 06:57:35;;;;;;;8.63;6.60;;;;;;;;;;5051964;28;20443;-63
2022/11/12 07:00:01;;;;;;;7.25;6.43;;;;;;;;;;5052335;28;20107;-63
2022/11/12 07:02:26;;;;;;;8.25;6.70;;;;;;;;;;5034247;28;20102;-63
2022/11/12 07:04:52;;;;;;;9.13;7.28;;;;;;;;;;5052359;28;20061;-64
2022/11/12 07:07:17;;;;;;;8.55;6.78;;;;;;;;;;5051961;28;20525;-66
2022/11/12 07:09:43;;;;;;;7.35;6.53;;;;;;;;;;5052073;28;20052;-64
2022/11/12 07:12:08;;;;;;;8.95;6.80;;;;;;;;;;5052243;28;20029;-63
2022/11/12 07:14:34;;;;;;;9.77;7.03;;;;;;;;;;5052155;28;20146;-64
2022/11/12 07:16:59;;;;;;;7.28;6.28;;;;;;;;;;5051877;28;20053;-66
2022/11/12 07:19:25;;;;;;;7.93;6.68;;;;;;;;;;5051864;28;20021;-64
2022/11/12 07:21:51;;;;;;;7.38;6.40;;;;;;;;;;5051786;28;20103;-63
2022/11/12 07:24:16;;;;;;;7.45;6.28;;;;;;;;;;5051774;28;20053;-67
2022/11/12 07:26:42;;;;;;;7.72;6.50;;;;;;;;;;5051808;28;20419;-63
2022/11/12 07:29:07;;;;;;;8.23;6.57;;;;;;;;;;5051769;28;20113;-63
2022/11/12 07:31:33;;;;;;;7.80;6.47;;;;;;;;;;5051896;28;20048;-63
2022/11/12 07:33:59;;;;;;;8.27;6.55;;;;;;;;;;5033573;28;20047;-63
2022/11/12 07:36:25;;;;;;;7.20;6.50;;;;;;;;;;5051869;28;20021;-63
2022/11/12 07:38:52;;;;;;;7.72;6.63;;;;;;;;;;5051688;28;20433;-64
2022/11/12 07:41:20;;;;;;;7.60;6.72;;;;;;;;;;5051923;28;20053;-64
2022/11/12 07:43:47;;;;;;;7.97;6.78;;;;;;;;;;5051722;28;20029;-63
2022/11/12 07:46:19;;;;;;;7.55;6.43;;;;;;;;;;5051552;28;20040;-63
2022/11/12 07:48:45;;;;;;;7.13;6.43;;;;;;;;;;5051857;28;20132;-64
2022/11/12 07:51:16;;;;;;;7.72;6.80;;;;;;;;;;5051654;28;20021;-64
2022/11/12 07:53:43;;;;;;;7.93;6.55;;;;;;;;;;5055220;28;20452;-64
2022/11/12 07:56:11;;;;;;;7.50;6.45;;;;;;;;;;5055047;28;20025;-64
2022/11/12 07:58:37;;;;;;;6.82;5.93;;;;;;;;;;5055309;28;20102;-64
2022/11/12 08:01:30;;;;;;;6.90;6.20;;;;;;;;;;5055062;28;20415;-63
2022/11/12 08:03:56;;;;;;;8.20;6.75;;;;;;;;;;5054918;28;20086;-63
2022/11/12 08:06:22;;;;;;;8.23;6.60;;;;;;;;;;5055014;28;20384;-64
2022/11/12 08:08:51;;;;;;;7.95;6.78;;;;;;;;;;5055176;28;20021;-63
2022/11/12 08:11:17;;;;;;;7.47;6.15;;;;;;;;;;5055118;28;20036;-63
2022/11/12 08:13:43;;;;;;;7.35;6.53;;;;;;;;;;5054836;28;20021;-66
2022/11/12 08:16:08;;;;;;;7.82;6.63;;;;;;;;;;5054628;28;20108;-63
2022/11/12 08:18:34;;;;;;;8.32;6.72;;;;;;;;;;5054686;28;20033;-64
2022/11/12 08:21:05;;;;;;;7.38;6.47;;;;;;;;;;5054976;28;20078;-64
2022/11/12 08:23:30;;;;;;;8.73;6.47;;;;;;;;;;5054393;28;20041;-64
2022/11/12 08:26:01;;;;;;;7.05;6.35;;;;;;;;;;5054926;28;20027;-64
2022/11/12 08:28:31;;;;;;;7.07;6.38;;;;;;;;;;5054592;28;20078;-64
2022/11/12 08:31:10;;;;;;;8.02;6.53;;;;;;;;;;5054460;28;20029;-64
2022/11/12 08:33:36;;;;;;;7.55;6.47;;;;;;;;;;5054696;28;20036;-63
2022/11/12 08:36:07;;;;;;;7.22;6.38;;;;;;;;;;5054681;28;20029;-63
2022/11/12 08:38:34;;;;;;;8.10;6.47;;;;;;;;;;5054403;28;20035;-64
2022/11/12 08:41:04;;;;;;;7.60;6.88;;;;;;;;;;5054309;28;20033;-63
2022/11/12 08:43:30;;;;;;;7.38;6.60;;;;;;;;;;5033437;28;20376;-64
2022/11/12 08:46:00;;;;;;;8.15;6.53;;;;;;;;;;5048453;28;20044;-64
2022/11/12 08:48:27;;;;;;;7.00;6.30;;;;;;;;;;5048767;28;20547;-64
2022/11/12 08:50:53;;;;;;;7.75;6.25;;;;;;;;;;5049549;28;20029;-64
2022/11/12 08:53:20;;;;;;;7.60;6.43;;;;;;;;;;5049307;28;20127;-65
2022/11/12 08:55:46;;;;;;;7.72;6.45;;;;;;;;;;5031094;28;20028;-64
2022/11/12 08:58:12;;;;;;;7.45;6.10;;;;;;;;;;5045806;28;20032;-65
2022/11/12 09:00:40;;;;;;;9.82;6.82;;;;;;;;;;5049592;28;20025;-63
2022/11/12 09:03:11;;;;;;;8.50;6.72;;;;;;;;;;5050255;28;20039;-66
2022/11/12 09:05:37;;;;;;;8.07;6.50;;;;;;;;;;5052958;28;20025;-64
2022/11/12 09:08:23;;;;;;;8.68;6.45;;;;;;;;;;5050099;28;20021;-64
2022/11/12 09:10:49;;;;;;;7.85;6.50;;;;;;;;;;5053679;28;20025;-65
2022/11/12 09:13:17;;;;;;;7.03;6.32;;;;;;;;;;5053747;28;20049;-66
2022/11/12 09:15:43;;;;;;;8.45;6.97;;;;;;;;;;5047783;28;20036;-67
2022/11/12 09:18:14;;;;;;;10.10;6.90;;;;;;;;;;5035715;28;20037;-66
2022/11/12 09:20:39;;;;;;;9.10;6.60;;;;;;;;;;5053706;28;20029;-66
2022/11/12 09:23:13;;;;;;;6.90;6.07;;;;;;;;;;5053230;28;20477;-68
2022/11/12 09:25:40;;;;;;;7.03;6.28;;;;;;;;;;5052093;28;20021;-69
2022/11/12 09:28:14;;;;;;;7.95;6.38;;;;;;;;;;5053389;28;20025;-68
2022/11/12 09:30:45;;;;;;;7.00;6.30;;;;;;;;;;5053375;28;20029;-69
2022/11/12 09:33:12;;;;;;;8.88;6.68;;;;;;;;;;5053341;28;20024;-67
2022/11/12 09:35:38;;;;;;;8.70;6.57;;;;;;;;;;5053079;28;20029;-68
2022/11/12 09:38:03;;;;;;;7.65;6.60;;;;;;;;;;5052230;28;20094;-68
2022/11/12 09:40:41;;;;;;;7.45;6.30;;;;;;;;;;5051810;28;20526;-68
2022/11/12 09:43:50;;;;;;;8.82;6.65;;;;;;;;;;5051495;28;20052;-68
2022/11/12 09:46:44;;;;;;;8.43;6.30;;;;;;;;;;4989650;28;20053;-67
2022/11/12 09:49:20;;;;;;;10.48;7.05;;;;;;;;;;5030787;28;20041;-68
2022/11/12 09:52:04;;;;;;;9.10;6.90;;;;;;;;;;5031726;28;20104;-69
2022/11/12 09:54:31;;;;;;;8.52;6.80;;;;;;;;;;5031511;28;20052;-67
2022/11/12 09:56:57;;;;;;;8.65;6.82;;;;;;;;;;5031244;28;20040;-68
2022/11/12 09:59:28;;;;;;;7.93;6.47;;;;;;;;;;5031430;28;20470;-68
2022/11/12 10:01:54;;;;;;;7.10;6.22;;;;;;;;;;5031285;28;20749;-69
2022/11/12 10:05:04;;;;;;;7.85;6.38;;;;;;;;;;5031650;28;20113;-68
2022/11/12 10:07:48;;;;;;;8.38;5.90;;;;;;;;;;5028115;28;20046;-68
2022/11/12 10:10:19;;;;;;;8.63;6.18;;;;;;;;;;5031294;28;20033;-68
2022/11/12 10:13:01;;;;;;;8.35;6.40;;;;;;;;;;5031188;28;20026;-68
2022/11/12 10:18:31;;;;;;;10.38;6.53;;;;;;;;;;5031046;28;20056;-68
2022/11/12 10:21:11;;;;;;;6.78;5.88;;;;;;;;;;5031141;28;20033;-68
2022/11/12 10:23:44;;;;;;;10.07;6.32;;;;;;;;;;5030773;28;20397;-68
2022/11/12 10:26:18;;;;;;;7.68;6.20;;;;;;;;;;5030923;28;20199;-67
2022/11/12 10:28:51;;;;;;;7.53;5.88;;;;;;;;;;5030903;28;20495;-69
2022/11/12 10:31:20;;;;;;;8.77;6.50;;;;;;;;;;5031146;28;20116;-69
2022/11/12 10:33:46;;;;;;;7.32;6.35;;;;;;;;;;5030785;28;20060;-67
2022/11/12 10:36:37;;;;;;;8.57;6.35;;;;;;;;;;5030904;28;20159;-69
2022/11/12 10:39:03;;;;;;;7.63;6.70;;;;;;;;;;5027704;28;20060;-68
2022/11/12 10:41:32;;;;;;;6.88;6.00;;;;;;;;;;5030980;28;20025;-67
2022/11/12 10:44:00;;;;;;;7.53;6.22;;;;;;;;;;5030793;28;20412;-68
2022/11/12 10:46:28;;;;;;;8.27;6.35;;;;;;;;;;5030891;28;20732;-67
2022/11/12 10:48:59;;;;;;;6.80;5.95;;;;;;;;;;5030746;28;20026;-67
2022/11/12 10:51:27;;;;;;;;;;;;;;;;;;5031040;28;20041;-67
2022/11/12 10:53:53;;;;;;;6.70;6.00;;;;;;;;;;5030859;28;19920;-68
2022/11/12 10:56:36;;;;;;;7.53;6.28;;;;;;;;;;5030728;28;20164;-68
2022/11/12 10:59:09;;;;;;;6.72;5.88;;;;;;;;;;5030819;28;20102;-67
2022/11/12 11:01:35;;;;;;;7.18;5.70;;;;;;;;;;5030579;28;20086;-68
2022/11/12 11:04:01;;;;;;;7.47;5.85;;;;;;;;;;5030658;28;20021;-67
2022/11/12 11:06:28;;;;;;;7.05;6.15;;;;;;;;;;5030500;28;20040;-68
2022/11/12 11:09:12;;;;;;;7.53;6.25;;;;;;;;;;5030493;28;20041;-68
2022/11/12 11:11:52;;;;;;;6.72;5.88;;;;;;;;;;5030748;28;20390;-68
2022/11/12 11:14:20;;;;;;;9.05;6.20;;;;;;;;;;5030957;28;20660;-68
2022/11/12 11:17:16;;;;;;;6.65;6.00;;;;;;;;;;5030334;28;20041;-68
2022/11/12 11:19:42;;;;;;;7.88;6.03;;;;;;;;;;5029445;28;20045;-68
2022/11/12 11:22:39;;;;;;;6.95;6.22;;;;;;;;;;5030337;28;20493;-67
2022/11/12 11:25:14;;;;;;;8.48;6.40;;;;;;;;;;5030395;28;20049;-68
2022/11/12 11:27:45;;;;;;;6.97;6.03;;;;;;;;;;5052085;28;20052;-66
2022/11/12 11:30:31;;;;;;;6.68;6.00;;;;;;;;;;5054154;28;20029;-67
2022/11/12 11:33:45;;;;;;;7.43;6.13;;;;;;;;;;5054009;28;20116;-67
2022/11/12 11:36:39;;;;;;;8.70;6.10;;;;;;;;;;5045075;28;20057;-66
2022/11/12 11:39:16;;;;;;;6.80;6.10;;;;;;;;;;5053888;28;20021;-66
2022/11/12 11:42:23;;;;;;;7.32;6.28;;;;;;;;;;5051526;28;20021;-64
2022/11/12 11:45:26;;;;;;;7.22;5.75;;;;;;;;;;5053660;28;20480;-67
2022/11/12 11:48:06;;;;;;;6.47;5.88;;;;;;;;;;5053916;28;20045;-67
2022/11/12 11:50:56;;;;;;;6.03;5.38;;;;;;;;;;5053551;28;20112;-67
2022/11/12 11:53:54;;;;;;;9.13;6.13;;;;;;;;;;5053882;28;20025;-67
2022/11/12 11:56:27;;;;;;;7.38;5.90;;;;;;;;;;5010521;28;20267;-67
2022/11/12 11:58:55;;;;;;;6.47;5.80;;;;;;;;;;5033313;28;20037;-67
2022/11/12 12:01:50;;;;;;;9.68;5.68;;;;;;;;;;5033785;28;20025;-67
2022/11/12 12:04:38;;;;;;;9.00;6.20;;;;;;;;;;5033970;28;20052;-67
2022/11/12 12:07:26;;;;;;;7.82;5.88;;;;;;;;;;5031213;28;20053;-67
2022/11/12 12:10:10;;;;;;;6.35;5.70;;;;;;;;;;5033528;28;20033;-68
2022/11/12 12:12:53;;;;;;;10.77;6.20;;;;;;;;;;5033696;28;20041;-69
2022/11/12 12:15:34;;;;;;;9.68;5.97;;;;;;;;;;5033334;28;20033;-69
2022/11/12 12:18:44;;;;;;;8.98;5.93;;;;;;;;;;5033219;28;20500;-69
2022/11/12 12:21:12;;;;;;;;;;;;;;;;;;5018242;28;20042;-68
2022/11/12 12:23:47;;;;;;;10.57;5.97;;;;;;;;;;5015228;28;19921;-68
2022/11/12 12:26:41;;;;;;;9.00;6.38;;;;;;;;;;5033377;28;20531;-69
2022/11/12 12:29:11;;;;;;;21.52;6.47;;;;;;;;;;5031151;28;20038;-68
2022/11/12 12:31:43;;;;;;;7.72;6.18;;;;;;;;;;5033427;28;20468;-69
2022/11/12 12:34:23;;;;;;;10.77;6.25;;;;;;;;;;5032997;28;20465;-69
2022/11/12 12:36:54;;;;;;;10.05;6.20;;;;;;;;;;5051654;28;20388;-68
2022/11/12 12:39:26;;;;;;;7.70;6.45;;;;;;;;;;5018150;28;20075;-69
2022/11/12 12:42:11;;;;;;;9.02;6.10;;;;;;;;;;5052856;28;20025;-68
2022/11/12 12:45:03;;;;;;;8.98;5.93;;;;;;;;;;5052811;28;20488;-67
2022/11/12 12:47:36;;;;;;;8.05;6.68;;;;;;;;;;5052679;28;20029;-65
2022/11/12 12:50:09;;;;;;;13.70;6.22;;;;;;;;;;5050193;28;20037;-66
2022/11/12 12:53:01;;;;;;;11.75;6.25;;;;;;;;;;5050936;28;20538;-67
2022/11/12 12:55:44;;;;;;;11.95;6.57;;;;;;;;;;5051510;28;20060;-67
2022/11/12 12:58:52;;;;;;;10.63;6.45;;;;;;;;;;5052524;28;20033;-67
2022/11/12 13:01:21;;;;;;;8.25;5.68;;;;;;;;;;5008696;28;20041;-67
2022/11/12 13:04:10;;;;;;;10.82;6.30;;;;;;;;;;5052665;28;20043;-67
2022/11/12 13:06:51;;;;;;;8.73;6.10;;;;;;;;;;5035265;28;20052;-67
2022/11/12 13:09:17;;;;;;;10.63;6.57;;;;;;;;;;5052315;28;20554;-66
2022/11/12 13:14:30;;;;;;;9.70;6.20;;;;;;;;;;5052333;28;20043;-68
2022/11/12 13:16:56;;;;;;;7.47;5.80;;;;;;;;;;5051951;28;20029;-67
2022/11/12 13:19:46;;;;;;;11.38;6.25;;;;;;;;;;5034373;28;20059;-68
2022/11/12 13:22:17;;;;;;;9.73;5.75;;;;;;;;;;5052242;28;20078;-67
2022/11/12 13:25:23;;;;;;;9.20;6.10;;;;;;;;;;5051868;28;20049;-67
2022/11/12 13:27:49;;;;;;;13.27;6.03;;;;;;;;;;5051799;28;20116;-67
2022/11/12 13:30:19;;;;;;;9.07;6.55;;;;;;;;;;5051922;28;20108;-67
2022/11/12 13:32:50;;;;;;;;;;;;;;;;;;5052233;28;20091;-68
2022/11/12 13:35:16;;;;;;;11.50;5.70;;;;;;;;;;5051753;28;19974;-67
2022/11/12 13:37:43;;;;;;;9.48;5.72;;;;;;;;;;5051885;28;20035;-67
2022/11/12 13:40:20;;;;;;;7.57;5.70;;;;;;;;;;5051739;28;20032;-67
2022/11/12 13:42:48;;;;;;;8.40;5.97;;;;;;;;;;5051522;28;20040;-67
2022/11/12 13:45:20;;;;;;;8.20;5.75;;;;;;;;;;5051534;28;20504;-67
2022/11/12 13:47:47;;;;;;;7.68;5.75;;;;;;;;;;5051801;28;20397;-69
2022/11/12 13:50:18;;;;;;;7.10;6.15;;;;;;;;;;5051701;28;20036;-67
2022/11/12 13:52:46;;;;;;;7.68;5.97;;;;;;;;;;5051477;28;20021;-67
2022/11/12 13:55:16;;;;;;;10.73;6.10;;;;;;;;;;5051408;28;20135;-67
2022/11/12 13:57:55;;;;;;;7.60;6.13;;;;;;;;;;5051418;28;20032;-67
2022/11/12 14:00:28;;;;;;;8.38;5.90;;;;;;;;;;5051228;28;20029;-68
2022/11/12 14:02:57;;;;;;;9.75;5.90;;;;;;;;;;5051598;28;20095;-67
2022/11/12 14:05:26;;;;;;;6.40;5.55;;;;;;;;;;5051011;28;20043;-66
2022/11/12 14:08:35;;;;;;;10.63;5.93;;;;;;;;;;5051470;28;20033;-66
2022/11/12 14:11:16;;;;;;;6.45;5.68;;;;;;;;;;5051412;28;20033;-66
2022/11/12 14:13:55;;;;;;;10.18;6.00;;;;;;;;;;5051327;28;20656;-68
2022/11/12 14:16:50;;;;;;;8.50;5.95;;;;;;;;;;5051238;28;20029;-67
2022/11/12 14:19:44;;;;;;;10.13;6.38;;;;;;;;;;5051260;28;20029;-67
2022/11/12 14:22:16;;;;;;;8.75;5.78;;;;;;;;;;5032936;28;20494;-68
2022/11/12 14:24:42;;;;;;;8.57;6.10;;;;;;;;;;5050589;28;20045;-67
2022/11/12 14:27:33;;;;;;;7.97;5.97;;;;;;;;;;5050273;28;20033;-67
2022/11/12 14:30:12;;;;;;;8.80;5.72;;;;;;;;;;5050806;28;20045;-67
2022/11/12 14:32:39;;;;;;;9.38;6.57;;;;;;;;;;5050611;28;20420;-67
2022/11/12 14:35:23;;;;;;;8.10;5.40;;;;;;;;;;5049868;28;20106;-66
2022/11/12 14:38:09;;;;;;;8.93;5.72;;;;;;;;;;5049954;28;20128;-67
2022/11/12 14:40:41;;;;;;;8.65;5.70;;;;;;;;;;5039890;28;20037;-66
2022/11/12 14:43:36;;;;;;;6.97;5.72;;;;;;;;;;5050571;28;20055;-67
2022/11/12 14:46:04;;;;;;;7.60;5.85;;;;;;;;;;5050825;28;20604;-66
2022/11/12 14:48:45;;;;;;;7.68;5.80;;;;;;;;;;5050821;28;20028;-66
2022/11/12 14:51:13;;;;;;;7.78;5.57;;;;;;;;;;5050355;28;20128;-67
2022/11/12 14:53:44;;;;;;;6.88;5.38;;;;;;;;;;5050503;28;20457;-66
2022/11/12 14:56:34;;;;;;;7.90;6.10;;;;;;;;;;5050576;28;20021;-66
2022/11/12 14:59:00;;;;;;;6.88;5.55;;;;;;;;;;5050022;28;20037;-66
2022/11/12 15:01:35;;;;;;;10.98;6.40;;;;;;;;;;5034535;28;20033;-66
2022/11/12 15:04:10;;;;;;;10.20;5.70;;;;;;;;;;5054794;28;20440;-66
2022/11/12 15:06:36;;;;;;;7.70;5.90;;;;;;;;;;5054053;28;20021;-66
2022/11/12 15:09:03;;;;;;;6.82;5.57;;;;;;;;;;5054433;28;20048;-67
2022/11/12 15:11:46;;;;;;;9.40;5.45;;;;;;;;;;5054285;28;20083;-67
2022/11/12 15:14:23;;;;;;;11.38;5.53;;;;;;;;;;5054700;28;20427;-67
2022/11/12 15:16:50;;;;;;;7.18;5.80;;;;;;;;;;5037044;28;20021;-66
2022/11/12 15:19:26;;;;;;;6.57;5.32;;;;;;;;;;5054335;28;20036;-67
2022/11/12 15:21:55;;;;;;;8.27;5.70;;;;;;;;;;5054321;28;20117;-67
2022/11/12 15:24:33;;;;;;;8.15;5.70;;;;;;;;;;5053961;28;20083;-67
2022/11/12 15:27:01;;;;;;;6.55;5.43;;;;;;;;;;5054435;28;20095;-67